createdAt,value
2017-08-05T00:00:24.037Z,49.90
2017-08-05T00:02:51.540Z,49.90
2017-08-05T00:05:19.084Z,50.00
2017-08-05T00:07:46.579Z,50.10
2017-08-05T00:10:14.079Z,50.20
2017-08-05T00:12:41.606Z,50.20
2017-08-05T00:15:09.110Z,50.30
2017-08-05T00:17:36.627Z,50.30
2017-08-05T00:20:04.132Z,50.40
2017-08-05T00:22:31.651Z,50.50
2017-08-05T00:24:59.150Z,50.70
2017-08-05T00:27:26.650Z,50.70
2017-08-05T00:29:54.158Z,50.80
2017-08-05T00:32:21.647Z,50.90
2017-08-05T00:34:49.926Z,50.70
2017-08-05T00:37:17.430Z,51.00
2017-08-05T00:39:44.942Z,51.00
2017-08-05T00:42:13.207Z,51.10
2017-08-05T00:44:40.730Z,51.10
2017-08-05T00:47:08.336Z,51.10
2017-08-05T00:49:35.833Z,51.20
2017-08-05T00:52:03.358Z,51.40
2017-08-05T00:54:30.851Z,51.50
2017-08-05T00:56:58.367Z,51.60
2017-08-05T00:59:25.875Z,51.60
2017-08-05T01:01:53.380Z,51.50
2017-08-05T01:04:20.895Z,51.60
2017-08-05T01:06:48.401Z,51.90
2017-08-05T01:09:15.908Z,51.80
2017-08-05T01:11:43.415Z,52.00
2017-08-05T01:14:10.929Z,51.90
2017-08-05T01:16:38.490Z,52.10
2017-08-05T01:19:06.006Z,52.30
2017-08-05T01:21:34.298Z,52.30
2017-08-05T01:24:01.793Z,52.20
2017-08-05T01:26:29.315Z,52.10
2017-08-05T01:28:56.818Z,52.00
2017-08-05T01:31:24.338Z,51.80
2017-08-05T01:33:51.843Z,51.90
2017-08-05T01:36:19.525Z,51.70
2017-08-05T01:38:47.035Z,51.80
2017-08-05T01:41:14.536Z,51.90
2017-08-05T01:43:42.058Z,51.90
2017-08-05T01:46:09.565Z,52.10
2017-08-05T01:48:37.089Z,52.30
2017-08-05T01:51:04.583Z,52.40
2017-08-05T01:53:32.085Z,52.60
2017-08-05T01:55:59.602Z,52.80
2017-08-05T01:58:27.103Z,52.80
2017-08-05T02:00:54.633Z,52.90
2017-08-05T02:03:22.894Z,52.60
2017-08-05T02:05:50.410Z,52.50
2017-08-05T02:08:17.916Z,52.50
2017-08-05T02:10:45.427Z,52.50
2017-08-05T02:13:12.943Z,52.50
2017-08-05T02:15:41.209Z,52.70
2017-08-05T02:18:08.726Z,52.70
2017-08-05T02:20:36.225Z,52.50
2017-08-05T02:23:03.751Z,52.50
2017-08-05T02:25:31.256Z,52.40
2017-08-05T02:27:59.514Z,52.40
2017-08-05T02:30:27.035Z,52.40
2017-08-05T02:32:54.534Z,52.50
2017-08-05T02:35:22.038Z,52.60
2017-08-05T02:37:49.542Z,52.60
2017-08-05T02:40:17.053Z,52.60
2017-08-05T02:42:44.545Z,52.50
2017-08-05T02:45:12.058Z,52.30
2017-08-05T02:47:39.587Z,52.30
2017-08-05T02:50:07.087Z,52.30
2017-08-05T02:52:34.615Z,52.40
2017-08-05T02:55:02.123Z,52.40
2017-08-05T02:57:29.652Z,52.60
2017-08-05T02:59:57.142Z,52.60
2017-08-05T03:02:24.679Z,52.70
2017-08-05T03:04:52.178Z,52.80
2017-08-05T03:07:19.675Z,52.90
2017-08-05T03:09:47.955Z,53.90
2017-08-05T03:12:16.219Z,53.40
2017-08-05T03:14:43.738Z,53.30
2017-08-05T03:17:11.230Z,53.50
2017-08-05T03:19:38.753Z,53.80
2017-08-05T03:22:06.251Z,53.90
2017-08-05T03:24:33.773Z,53.90
2017-08-05T03:27:01.275Z,53.90
2017-08-05T03:29:28.770Z,53.80
2017-08-05T03:31:56.289Z,53.90
2017-08-05T03:34:23.787Z,54.10
2017-08-05T03:36:51.310Z,54.10
2017-08-05T03:39:18.803Z,54.00
2017-08-05T03:41:46.321Z,53.80
2017-08-05T03:44:13.819Z,53.90
2017-08-05T03:46:41.364Z,54.10
2017-08-05T03:49:08.858Z,54.10
2017-08-05T03:51:36.355Z,54.10
2017-08-05T03:54:03.891Z,54.20
2017-08-05T03:56:31.400Z,54.20
2017-08-05T03:58:59.670Z,54.60
2017-08-05T04:01:27.936Z,54.70
2017-08-05T04:03:56.370Z,55.00
2017-08-05T04:06:23.870Z,54.80
2017-08-05T04:08:51.384Z,55.10
2017-08-05T04:11:18.883Z,55.30
2017-08-05T04:13:46.411Z,55.40
2017-08-05T04:16:13.942Z,55.60
2017-08-05T04:18:41.452Z,55.70
2017-08-05T04:21:08.966Z,56.00
2017-08-05T04:23:36.466Z,56.00
2017-08-05T04:26:03.981Z,56.00
2017-08-05T04:28:31.483Z,56.10
2017-08-05T04:30:59.000Z,56.10
2017-08-05T04:33:26.505Z,56.00
2017-08-05T04:35:54.016Z,56.10
2017-08-05T04:38:21.519Z,56.20
2017-08-05T04:40:49.055Z,56.30
2017-08-05T04:43:16.554Z,56.30
2017-08-05T04:45:44.054Z,56.40
2017-08-05T04:48:11.566Z,56.50
2017-08-05T04:50:39.068Z,56.50
2017-08-05T04:53:06.595Z,56.40
2017-08-05T04:55:34.870Z,56.80
2017-08-05T04:58:02.385Z,56.20
2017-08-05T05:00:29.888Z,56.10
2017-08-05T05:02:57.410Z,56.20
2017-08-05T05:05:24.898Z,55.90
2017-08-05T05:07:52.416Z,55.50
2017-08-05T05:10:19.910Z,55.40
2017-08-05T05:12:47.494Z,55.10
2017-08-05T05:15:15.795Z,54.60
2017-08-05T05:17:43.306Z,54.50
2017-08-05T05:20:10.826Z,54.50
2017-08-05T05:22:38.324Z,54.50
2017-08-05T05:25:05.859Z,54.60
2017-08-05T05:27:33.354Z,54.80
2017-08-05T05:30:00.869Z,55.30
2017-08-05T05:32:28.371Z,55.60
2017-08-05T05:34:55.884Z,55.60
2017-08-05T05:37:23.386Z,55.80
2017-08-05T05:39:50.879Z,55.90
2017-08-05T05:42:18.389Z,55.60
2017-08-05T05:44:45.895Z,56.00
2017-08-05T05:47:13.418Z,55.70
2017-08-05T05:49:40.943Z,56.00
2017-08-05T05:52:08.462Z,55.30
2017-08-05T05:54:35.973Z,55.30
2017-08-05T05:57:03.490Z,54.90
2017-08-05T05:59:30.983Z,54.10
2017-08-05T06:01:58.512Z,54.10
2017-08-05T06:04:26.012Z,53.20
2017-08-05T06:06:53.520Z,52.30
2017-08-05T06:09:21.109Z,52.00
2017-08-05T06:11:48.718Z,51.50
2017-08-05T06:14:16.247Z,51.20
2017-08-05T06:16:43.739Z,50.70
2017-08-05T06:19:12.026Z,50.40
2017-08-05T06:21:40.291Z,48.70
2017-08-05T06:24:07.808Z,48.50
2017-08-05T06:26:35.306Z,48.80
2017-08-05T06:29:02.836Z,48.60
2017-08-05T06:31:30.372Z,48.20
2017-08-05T06:33:57.869Z,47.90
2017-08-05T06:36:25.387Z,47.10
2017-08-05T06:38:52.898Z,47.20
2017-08-05T06:41:20.411Z,47.30
2017-08-05T06:43:47.911Z,46.90
2017-08-05T06:46:15.427Z,46.90
2017-08-05T06:48:42.941Z,46.10
2017-08-05T06:51:10.460Z,44.40
2017-08-05T06:53:37.979Z,44.40
2017-08-05T06:56:05.534Z,44.40
2017-08-05T06:58:33.086Z,43.70
2017-08-05T07:01:01.343Z,44.20
2017-08-05T07:03:29.651Z,43.80
2017-08-05T07:05:57.923Z,44.00
2017-08-05T07:08:26.218Z,43.70
2017-08-05T07:10:53.719Z,43.70
2017-08-05T07:13:21.238Z,43.50
2017-08-05T07:15:48.734Z,43.20
2017-08-05T07:18:16.250Z,43.70
2017-08-05T07:20:43.750Z,44.30
2017-08-05T07:23:11.295Z,43.00
2017-08-05T07:25:38.800Z,43.20
2017-08-05T07:28:06.307Z,43.50
2017-08-05T07:30:33.821Z,43.90
2017-08-05T07:33:01.335Z,43.60
2017-08-05T07:35:28.858Z,43.60
2017-08-05T07:37:56.377Z,43.10
2017-08-05T07:40:23.908Z,42.80
2017-08-05T07:42:51.405Z,43.20
2017-08-05T07:45:18.918Z,43.80
2017-08-05T07:47:46.422Z,43.80
2017-08-05T07:50:13.969Z,43.50
2017-08-05T07:52:41.466Z,42.80
2017-08-05T07:55:08.973Z,42.00
2017-08-05T07:57:36.487Z,42.10
2017-08-05T08:00:03.989Z,42.70
2017-08-05T08:02:31.511Z,42.60
2017-08-05T08:04:59.037Z,43.30
2017-08-05T08:07:26.567Z,43.30
2017-08-05T08:09:54.084Z,40.70
2017-08-05T08:12:21.613Z,42.40
2017-08-05T08:14:49.121Z,41.70
2017-08-05T08:17:16.636Z,42.80
2017-08-05T08:19:44.155Z,43.10
2017-08-05T08:22:11.670Z,42.70
2017-08-05T08:24:39.958Z,41.60
2017-08-05T08:27:07.458Z,41.50
2017-08-05T08:29:34.996Z,42.00
2017-08-05T08:32:02.500Z,42.30
2017-08-05T08:34:30.042Z,41.40
2017-08-05T08:36:57.546Z,40.60
2017-08-05T08:39:25.054Z,41.20
2017-08-05T08:41:52.619Z,40.10
2017-08-05T08:44:20.126Z,41.90
2017-08-05T08:46:47.655Z,40.80
2017-08-05T08:49:15.179Z,39.60
2017-08-05T08:51:42.699Z,40.10
2017-08-05T08:54:10.204Z,41.50
2017-08-05T08:56:37.771Z,41.30
2017-08-05T08:59:05.271Z,43.00
2017-08-05T09:01:32.994Z,42.00
2017-08-05T09:04:00.536Z,41.30
2017-08-05T09:06:28.046Z,41.50
2017-08-05T09:08:56.338Z,42.40
2017-08-05T09:11:23.856Z,42.30
2017-08-05T09:13:51.537Z,41.90
2017-08-05T09:16:19.159Z,41.10
2017-08-05T09:18:46.705Z,41.50
2017-08-05T09:21:14.214Z,41.40
2017-08-05T09:23:41.772Z,41.50
2017-08-05T09:26:09.295Z,41.70
2017-08-05T09:28:36.794Z,41.90
2017-08-05T09:31:04.551Z,42.20
2017-08-05T09:33:32.302Z,43.20
2017-08-05T09:35:59.847Z,43.60
2017-08-05T09:38:27.363Z,43.00
2017-08-05T09:40:54.869Z,43.10
2017-08-05T09:43:22.395Z,42.40
2017-08-05T09:45:49.954Z,41.00
2017-08-05T09:48:17.995Z,40.50
2017-08-05T09:50:46.640Z,42.30
2017-08-05T09:53:14.154Z,42.20
2017-08-05T09:55:41.656Z,42.30
2017-08-05T09:58:09.207Z,42.80
2017-08-05T10:00:36.790Z,41.80
2017-08-05T10:03:04.290Z,42.30
2017-08-05T10:05:32.577Z,41.80
2017-08-05T10:08:00.083Z,41.70
2017-08-05T10:10:27.598Z,42.20
2017-08-05T10:12:55.104Z,42.50
2017-08-05T10:15:22.624Z,42.70
2017-08-05T10:17:50.192Z,43.30
2017-08-05T10:20:17.751Z,43.10
2017-08-05T10:22:46.047Z,43.00
2017-08-05T10:25:13.558Z,42.30
2017-08-05T10:27:41.851Z,41.40
2017-08-05T10:30:09.369Z,41.30
2017-08-05T10:32:36.922Z,41.80
2017-08-05T10:35:04.427Z,41.50
2017-08-05T10:37:31.976Z,41.90
2017-08-05T10:39:59.511Z,41.60
2017-08-05T10:42:27.054Z,41.30
2017-08-05T10:44:54.558Z,42.00
2017-08-05T10:47:22.103Z,42.10
2017-08-05T10:49:50.394Z,42.60
2017-08-05T10:52:18.671Z,43.00
2017-08-05T10:54:46.968Z,43.10
2017-08-05T10:57:14.490Z,43.10
2017-08-05T10:59:42.766Z,43.70
2017-08-05T11:02:10.279Z,43.00
2017-08-05T11:04:37.828Z,42.70
2017-08-05T11:07:05.355Z,42.20
2017-08-05T11:09:32.866Z,42.10
2017-08-05T11:12:00.383Z,42.90
2017-08-05T11:14:28.734Z,42.30
2017-08-05T11:16:56.271Z,41.30
2017-08-05T11:19:23.788Z,41.80
2017-08-05T11:21:51.334Z,42.00
2017-08-05T11:24:18.838Z,42.10
2017-08-05T11:26:47.190Z,42.50
2017-08-05T11:29:14.704Z,41.40
2017-08-05T11:31:42.206Z,42.70
2017-08-05T11:34:09.729Z,41.60
2017-08-05T11:36:37.234Z,41.90
2017-08-05T11:39:04.763Z,41.90
2017-08-05T11:41:32.271Z,42.20
2017-08-05T11:43:59.826Z,41.30
2017-08-05T11:46:27.331Z,41.50
2017-08-05T11:48:54.878Z,41.70
2017-08-05T11:51:22.384Z,41.60
2017-08-05T11:53:50.410Z,41.50
2017-08-05T11:56:17.935Z,41.80
2017-08-05T11:58:45.450Z,42.20
2017-08-05T12:01:12.985Z,41.70
2017-08-05T12:03:40.490Z,42.10
2017-08-05T12:06:08.022Z,41.80
2017-08-05T12:08:35.550Z,41.80
2017-08-05T12:11:03.079Z,40.50
2017-08-05T12:13:30.587Z,40.70
2017-08-05T12:15:58.142Z,40.90
2017-08-05T12:18:25.658Z,41.10
2017-08-05T12:20:53.178Z,41.00
2017-08-05T12:23:20.703Z,41.30
2017-08-05T12:25:48.211Z,41.20
2017-08-05T12:28:15.735Z,41.10
2017-08-05T12:30:43.511Z,41.30
2017-08-05T12:33:12.298Z,40.20
2017-08-05T12:35:39.808Z,40.20
2017-08-05T12:38:07.314Z,40.40
2017-08-05T12:40:34.841Z,39.90
2017-08-05T12:43:02.382Z,39.60
2017-08-05T12:45:29.891Z,39.60
2017-08-05T12:47:57.400Z,39.60
2017-08-05T12:50:24.965Z,40.60
2017-08-05T12:52:53.295Z,39.90
2017-08-05T12:55:20.827Z,40.30
2017-08-05T12:57:48.331Z,40.10
2017-08-05T13:00:15.846Z,39.50
2017-08-05T13:02:43.372Z,39.30
2017-08-05T13:05:11.173Z,39.90
2017-08-05T13:07:38.706Z,39.70
2017-08-05T13:10:06.209Z,39.50
2017-08-05T13:12:33.751Z,39.80
2017-08-05T13:15:01.274Z,39.30
2017-08-05T13:17:28.812Z,38.80
2017-08-05T13:19:56.324Z,39.10
2017-08-05T13:22:23.839Z,38.60
2017-08-05T13:24:51.812Z,39.00
2017-08-05T13:27:19.332Z,38.50
2017-08-05T13:29:46.924Z,38.80
2017-08-05T13:32:14.643Z,38.50
2017-08-05T13:34:42.185Z,38.80
2017-08-05T13:37:09.703Z,39.70
2017-08-05T13:39:37.417Z,39.70
2017-08-05T13:42:04.922Z,39.90
2017-08-05T13:44:32.450Z,40.00
2017-08-05T13:46:59.971Z,39.80
2017-08-05T13:49:27.513Z,39.70
2017-08-05T13:51:56.099Z,39.30
2017-08-05T13:54:23.593Z,38.90
2017-08-05T13:56:51.119Z,38.70
2017-08-05T13:59:18.637Z,38.20
2017-08-05T14:01:46.179Z,38.50
2017-08-05T14:04:13.696Z,38.40
2017-08-05T14:06:41.203Z,38.40
2017-08-05T14:09:08.725Z,38.40
2017-08-05T14:11:36.234Z,38.20
2017-08-05T14:14:04.613Z,37.60
2017-08-05T14:16:32.114Z,38.00
2017-08-05T14:18:59.635Z,38.50
2017-08-05T14:21:27.902Z,38.30
2017-08-05T14:23:55.418Z,38.20
2017-08-05T14:26:22.926Z,38.50
2017-08-05T14:28:50.588Z,38.30
2017-08-05T14:31:18.122Z,38.30
2017-08-05T14:33:45.634Z,38.70
2017-08-05T14:36:13.150Z,38.40
2017-08-05T14:38:40.650Z,38.40
2017-08-05T14:41:08.175Z,38.50
2017-08-05T14:43:35.674Z,37.50
2017-08-05T14:46:03.198Z,37.80
2017-08-05T14:48:30.703Z,37.90
2017-08-05T14:50:58.206Z,38.00
2017-08-05T14:53:25.726Z,38.30
2017-08-05T14:55:53.241Z,38.00
2017-08-05T14:58:20.773Z,38.10
2017-08-05T15:00:48.276Z,38.00
2017-08-05T15:03:16.570Z,38.50
2017-08-05T15:05:44.078Z,38.50
2017-08-05T15:08:11.614Z,38.60
2017-08-05T15:10:39.129Z,38.70
2017-08-05T15:13:07.407Z,38.70
2017-08-05T15:15:34.926Z,38.70
2017-08-05T15:18:02.420Z,38.00
2017-08-05T15:20:30.703Z,37.00
2017-08-05T15:22:59.004Z,36.80
2017-08-05T15:25:26.521Z,36.70
2017-08-05T15:27:54.799Z,36.40
2017-08-05T15:30:22.334Z,36.40
2017-08-05T15:32:49.847Z,36.00
2017-08-05T15:35:17.366Z,36.00
2017-08-05T15:37:44.890Z,36.20
2017-08-05T15:40:12.397Z,35.90
2017-08-05T15:42:39.926Z,36.10
2017-08-05T15:45:07.637Z,36.10
2017-08-05T15:47:35.172Z,35.80
2017-08-05T15:50:02.681Z,35.60
2017-08-05T15:52:30.226Z,35.50
2017-08-05T15:54:57.748Z,35.60
2017-08-05T15:57:25.262Z,34.80
2017-08-05T15:59:52.784Z,34.70
2017-08-05T16:02:20.293Z,34.70
2017-08-05T16:04:47.829Z,35.00
2017-08-05T16:07:15.343Z,34.90
2017-08-05T16:09:42.944Z,35.10
2017-08-05T16:12:10.458Z,35.20
2017-08-05T16:14:37.979Z,35.50
2017-08-05T16:17:05.482Z,35.60
2017-08-05T16:19:32.986Z,35.50
2017-08-05T16:22:00.551Z,34.80
2017-08-05T16:24:28.109Z,35.20
2017-08-05T16:26:56.029Z,34.80
2017-08-05T16:29:23.587Z,34.40
2017-08-05T16:31:51.170Z,34.00
2017-08-05T16:34:18.707Z,34.10
2017-08-05T16:36:46.287Z,34.10
2017-08-05T16:39:13.790Z,33.80
2017-08-05T16:41:41.304Z,33.60
2017-08-05T16:44:08.854Z,33.90
2017-08-05T16:46:36.356Z,34.60
2017-08-05T16:49:03.878Z,33.70
2017-08-05T16:51:32.162Z,33.40
2017-08-05T16:53:59.702Z,33.90
2017-08-05T16:56:27.231Z,34.10
2017-08-05T16:58:54.787Z,33.60
2017-08-05T17:01:22.382Z,33.90
2017-08-05T17:03:49.893Z,33.90
2017-08-05T17:06:17.415Z,33.40
2017-08-05T17:08:45.686Z,34.50
2017-08-05T17:11:13.201Z,34.20
2017-08-05T17:13:40.718Z,34.90
2017-08-05T17:16:08.291Z,35.40
2017-08-05T17:18:36.547Z,35.70
2017-08-05T17:21:04.154Z,36.50
2017-08-05T17:23:37.653Z,36.00
2017-08-05T17:26:05.240Z,36.00
2017-08-05T17:28:32.846Z,36.30
2017-08-05T17:31:00.358Z,36.60
2017-08-05T17:33:27.902Z,37.20
2017-08-05T17:35:55.459Z,37.50
2017-08-05T17:38:22.974Z,37.70
2017-08-05T17:40:50.519Z,38.10
2017-08-05T17:43:18.047Z,38.50
2017-08-05T17:45:45.597Z,38.40
2017-08-05T17:48:13.128Z,38.60
2017-08-05T17:50:40.662Z,39.20
2017-08-05T17:53:08.936Z,39.80
2017-08-05T17:55:37.231Z,39.80
2017-08-05T17:58:04.790Z,39.40
2017-08-05T18:00:32.368Z,40.00
2017-08-05T18:03:00.743Z,39.90
2017-08-05T18:05:28.246Z,40.50
2017-08-05T18:07:55.790Z,41.60
2017-08-05T18:10:23.300Z,41.90
2017-08-05T18:12:51.566Z,42.30
2017-08-05T18:15:19.859Z,41.00
2017-08-05T18:17:48.133Z,41.70
2017-08-05T18:20:15.670Z,41.60
2017-08-05T18:22:43.198Z,42.00
2017-08-05T18:25:10.773Z,42.00
2017-08-05T18:27:38.292Z,42.40
2017-08-05T18:30:05.870Z,42.90
2017-08-05T18:32:33.405Z,43.40
2017-08-05T18:35:00.911Z,43.20
2017-08-05T18:37:28.438Z,43.40
2017-08-05T18:39:55.951Z,43.60
2017-08-05T18:42:23.498Z,43.90
2017-08-05T18:44:51.000Z,43.70
2017-08-05T18:47:18.511Z,43.70
2017-08-05T18:49:46.033Z,43.80
2017-08-05T18:52:13.538Z,43.70
2017-08-05T18:54:41.075Z,44.00
2017-08-05T18:57:08.604Z,44.10
2017-08-05T18:59:36.141Z,44.30
2017-08-05T19:02:04.422Z,44.30
2017-08-05T19:04:32.722Z,44.40
2017-08-05T19:07:00.237Z,44.40
2017-08-05T19:09:28.513Z,44.80
2017-08-05T19:11:56.039Z,44.20
2017-08-05T19:14:23.549Z,43.80
2017-08-05T19:16:51.071Z,43.70
2017-08-05T19:19:18.562Z,43.60
2017-08-05T19:21:46.086Z,44.90
2017-08-05T19:24:13.585Z,47.00
2017-08-05T19:26:41.112Z,47.40
2017-08-05T19:29:08.633Z,48.40
2017-08-05T19:31:36.126Z,48.20
2017-08-05T19:34:03.654Z,48.40
2017-08-05T19:36:31.153Z,49.00
2017-08-05T19:38:58.670Z,49.40
2017-08-05T19:41:26.185Z,49.20
2017-08-05T19:43:53.679Z,49.30
2017-08-05T19:46:21.188Z,50.60
2017-08-05T19:48:48.687Z,50.50
2017-08-05T19:51:16.235Z,51.50
2017-08-05T19:53:44.495Z,52.40
2017-08-05T19:56:12.086Z,52.40
2017-08-05T19:58:39.656Z,52.50
2017-08-05T20:01:07.156Z,52.90
2017-08-05T20:03:34.671Z,52.80
2017-08-05T20:06:02.187Z,52.10
2017-08-05T20:08:30.215Z,51.70
2017-08-05T20:10:57.861Z,51.40
2017-08-05T20:13:25.378Z,51.20
2017-08-05T20:15:52.870Z,50.90
2017-08-05T20:18:20.386Z,51.20
2017-08-05T20:20:47.873Z,51.20
2017-08-05T20:23:16.156Z,51.80
2017-08-05T20:25:44.422Z,51.10
2017-08-05T20:28:11.946Z,51.00
2017-08-05T20:30:39.438Z,51.30
2017-08-05T20:33:06.955Z,51.00
2017-08-05T20:35:34.448Z,50.80
2017-08-05T20:38:01.938Z,50.70
2017-08-05T20:40:29.450Z,51.00
2017-08-05T20:42:56.947Z,50.90
2017-08-05T20:45:25.263Z,50.90
2017-08-05T20:47:52.761Z,50.80
2017-08-05T20:50:20.289Z,51.10
2017-08-05T20:52:47.802Z,51.00
2017-08-05T20:55:15.322Z,50.90
2017-08-05T20:57:42.822Z,50.60
2017-08-05T21:00:11.098Z,50.50
2017-08-05T21:02:39.374Z,50.50
2017-08-05T21:05:06.886Z,50.40
2017-08-05T21:07:34.395Z,50.40
2017-08-05T21:10:02.678Z,50.40
2017-08-05T21:12:30.170Z,50.40
2017-08-05T21:14:57.665Z,50.40
2017-08-05T21:17:25.179Z,50.50
2017-08-05T21:19:52.677Z,50.50
2017-08-05T21:22:20.194Z,50.50
2017-08-05T21:24:47.701Z,50.70
2017-08-05T21:27:15.202Z,50.70
2017-08-05T21:29:42.697Z,50.70
2017-08-05T21:32:10.205Z,50.70
2017-08-05T21:34:37.726Z,50.90
2017-08-05T21:37:05.229Z,50.80
2017-08-05T21:39:32.726Z,50.90
2017-08-05T21:42:00.243Z,51.00
2017-08-05T21:44:27.742Z,51.00
2017-08-05T21:46:55.259Z,51.10
2017-08-05T21:49:22.774Z,51.10
2017-08-05T21:51:50.282Z,51.20
2017-08-05T21:54:17.779Z,51.20
2017-08-05T21:56:45.318Z,51.30
2017-08-05T21:59:12.811Z,51.40
2017-08-05T22:01:40.302Z,51.30
2017-08-05T22:04:08.601Z,51.40
2017-08-05T22:06:36.106Z,51.40
2017-08-05T22:09:03.618Z,51.40
2017-08-05T22:11:31.110Z,51.50
2017-08-05T22:13:58.621Z,51.60
2017-08-05T22:16:26.883Z,51.30
2017-08-05T22:18:54.403Z,51.30
2017-08-05T22:21:21.929Z,51.30
2017-08-05T22:23:49.439Z,51.20
2017-08-05T22:26:16.934Z,51.00
2017-08-05T22:28:44.453Z,51.00
2017-08-05T22:31:11.947Z,51.00
2017-08-05T22:33:39.470Z,50.90
2017-08-05T22:36:06.963Z,50.90
2017-08-05T22:38:35.219Z,50.80
2017-08-05T22:41:02.730Z,50.70
2017-08-05T22:43:30.217Z,50.60
2017-08-05T22:45:57.739Z,50.50
2017-08-05T22:48:25.230Z,50.50
2017-08-05T22:50:52.748Z,50.50
2017-08-05T22:53:20.242Z,50.50
2017-08-05T22:55:47.759Z,50.70
2017-08-05T22:58:15.254Z,50.70
2017-08-05T23:00:42.770Z,50.60
2017-08-05T23:03:11.033Z,50.30
2017-08-05T23:05:38.537Z,50.30
2017-08-05T23:08:06.033Z,50.10
2017-08-05T23:10:33.541Z,49.80
2017-08-05T23:13:01.054Z,49.40
2017-08-05T23:15:28.570Z,49.20
2017-08-05T23:17:56.059Z,49.10
2017-08-05T23:20:23.549Z,48.90
2017-08-05T23:22:51.830Z,48.50
2017-08-05T23:25:19.330Z,48.40
2017-08-05T23:27:46.838Z,48.40
2017-08-05T23:30:14.342Z,48.20
2017-08-05T23:32:41.854Z,48.20
2017-08-05T23:35:09.345Z,48.20
2017-08-05T23:37:36.861Z,47.90
2017-08-05T23:40:04.352Z,47.70
2017-08-05T23:42:31.866Z,47.80
2017-08-05T23:44:59.357Z,47.90
2017-08-05T23:47:27.642Z,48.90
2017-08-05T23:49:55.898Z,49.30
2017-08-05T23:52:23.406Z,49.30
2017-08-05T23:54:50.901Z,49.70
2017-08-05T23:57:19.201Z,50.50
2017-08-05T23:59:47.462Z,49.60
